Time;durP1;ratioP1;P1;durP2;ratioP2;P2;SDS_P1;SDS_P2;PMS_P1;PMS_P2;Temp;Humidity;BMP_temperature;BMP_pressure;BME280_temperature;BME280_humidity;BME280_pressure;Samples;Min_cycle;Max_cycle;Signal;HPM_P1;HPM_P2
2021/08/29 00:00:13;;;;;;;2.47;1.42;;;17.90;99.90;;;;;;5070370;28;20644;-71
2021/08/29 00:02:41;;;;;;;1.90;1.00;;;17.90;99.90;;;;;;5069468;28;20255;-72
2021/08/29 00:05:09;;;;;;;1.77;1.35;;;17.90;99.90;;;;;;5070058;28;20279;-71
2021/08/29 00:07:36;;;;;;;4.18;1.33;;;17.80;99.90;;;;;;5070713;28;20263;-71
2021/08/29 00:10:04;;;;;;;3.25;1.17;;;17.80;99.90;;;;;;5069224;28;20555;-71
2021/08/29 00:12:31;;;;;;;3.13;1.38;;;17.80;99.90;;;;;;5070469;28;20209;-71
2021/08/29 00:14:58;;;;;;;2.33;1.58;;;17.70;99.90;;;;;;5073247;28;20247;-71
2021/08/29 00:17:26;;;;;;;2.70;1.73;;;17.70;99.90;;;;;;5074528;28;20255;-72
2021/08/29 00:19:54;;;;;;;1.45;1.08;;;17.70;99.90;;;;;;5073345;28;20214;-72
2021/08/29 00:22:21;;;;;;;1.50;1.40;;;17.70;99.90;;;;;;5074480;28;20198;-72
2021/08/29 00:24:48;;;;;;;4.13;1.23;;;17.70;99.90;;;;;;5073639;28;20205;-72
2021/08/29 00:27:15;;;;;;;4.28;1.33;;;17.80;99.90;;;;;;5066166;28;20666;-72
2021/08/29 00:29:42;;;;;;;1.55;1.25;;;17.80;99.90;;;;;;5073825;28;20263;-72
2021/08/29 00:32:09;;;;;;;1.70;1.10;;;17.60;99.90;;;;;;5073650;28;20202;-72
2021/08/29 00:34:36;;;;;;;2.78;1.67;;;17.60;99.90;;;;;;5074186;28;20267;-72
2021/08/29 00:37:04;;;;;;;2.15;1.52;;;17.50;99.90;;;;;;5073994;28;20276;-72
2021/08/29 00:39:32;;;;;;;1.63;1.27;;;17.40;99.90;;;;;;5073853;28;20202;-72
2021/08/29 00:41:59;;;;;;;2.20;1.25;;;17.40;99.90;;;;;;5073082;28;20234;-72
2021/08/29 00:44:26;;;;;;;1.58;1.20;;;17.40;99.90;;;;;;5073516;28;20213;-72
2021/08/29 00:46:53;;;;;;;2.70;1.20;;;17.40;99.90;;;;;;5073257;28;20255;-72
2021/08/29 00:49:21;;;;;;;1.70;1.42;;;17.30;99.90;;;;;;5073546;28;20214;-72
2021/08/29 00:51:51;;;;;;;2.30;1.52;;;17.40;99.90;;;;;;5065813;28;20206;-73
2021/08/29 00:54:19;;;;;;;2.13;1.23;;;17.30;99.90;;;;;;5073366;28;20293;-73
2021/08/29 00:56:46;;;;;;;2.50;1.60;;;17.30;99.90;;;;;;5073291;28;20206;-73
2021/08/29 00:59:13;;;;;;;1.25;1.02;;;17.20;99.90;;;;;;5073248;28;20202;-73
2021/08/29 01:01:43;;;;;;;4.25;1.52;;;17.20;99.90;;;;;;5072834;28;20281;-73
2021/08/29 01:04:20;;;;;;;1.70;1.40;;;17.20;99.90;;;;;;5073283;28;20620;-73
2021/08/29 01:06:53;;;;;;;2.90;1.13;;;17.20;99.90;;;;;;5073094;28;20274;-74
2021/08/29 01:09:23;;;;;;;1.60;1.25;;;17.10;99.90;;;;;;5073050;28;20256;-72
2021/08/29 01:11:53;;;;;;;1.85;1.15;;;17.10;99.90;;;;;;5077380;28;20202;-72
2021/08/29 01:14:24;;;;;;;3.45;1.48;;;17.10;99.90;;;;;;5073496;28;20207;-72
2021/08/29 01:16:55;;;;;;;1.52;1.30;;;17.10;99.90;;;;;;5072745;28;20747;-71
2021/08/29 01:19:32;;;;;;;1.33;1.23;;;17.10;99.90;;;;;;5073320;28;20218;-71
2021/08/29 01:22:02;;;;;;;2.40;1.27;;;17.00;99.90;;;;;;5072681;28;20594;-71
2021/08/29 01:24:31;;;;;;;1.65;1.33;;;17.00;99.90;;;;;;5072548;28;20206;-71
2021/08/29 01:27:04;;;;;;;2.42;1.30;;;16.90;99.90;;;;;;5070436;28;20286;-71
2021/08/29 01:29:33;;;;;;;2.75;1.38;;;16.90;99.90;;;;;;5080893;28;20210;-71
2021/08/29 01:32:01;;;;;;;1.42;1.33;;;16.90;99.90;;;;;;5078390;28;20255;-71
2021/08/29 01:34:28;;;;;;;1.25;1.15;;;16.90;99.90;;;;;;5090582;28;20685;-71
2021/08/29 01:36:56;;;;;;;1.52;1.42;;;16.80;99.90;;;;;;5083459;28;20200;-71
2021/08/29 01:39:24;;;;;;;3.25;1.23;;;16.80;99.90;;;;;;5092812;28;20202;-71
2021/08/29 01:41:52;;;;;;;1.90;1.63;;;16.80;99.90;;;;;;5091259;28;20230;-71
2021/08/29 01:44:21;;;;;;;3.10;1.65;;;16.90;99.90;;;;;;5092998;28;20267;-71
2021/08/29 01:46:49;;;;;;;4.53;1.35;;;16.80;99.90;;;;;;5086029;28;20368;-71
2021/08/29 01:49:17;;;;;;;1.20;1.10;;;16.90;99.90;;;;;;5086093;28;20627;-71
2021/08/29 01:51:45;;;;;;;1.13;1.02;;;16.80;99.90;;;;;;5092422;28;20211;-73
2021/08/29 01:54:12;;;;;;;1.92;1.52;;;16.80;99.90;;;;;;5085336;28;20247;-71
2021/08/29 01:57:11;;;;;;;3.25;1.35;;;16.90;99.90;;;;;;5093050;28;20212;-71
2021/08/29 01:59:38;;;;;;;1.42;0.80;;;16.80;99.90;;;;;;5062127;28;20245;-71
2021/08/29 02:02:08;;;;;;;4.68;1.73;;;16.80;99.90;;;;;;5084902;28;20226;-70
2021/08/29 02:04:35;;;;;;;1.33;1.20;;;16.90;99.90;;;;;;5092445;28;20626;-71
2021/08/29 02:07:18;;;;;;;1.25;1.15;;;16.80;99.90;;;;;;5092050;28;20201;-71
2021/08/29 02:09:50;;;;;;;3.60;2.17;;;16.70;99.90;;;;;;5067872;28;20764;-71
2021/08/29 02:12:18;;;;;;;2.75;1.60;;;16.60;99.90;;;;;;5084749;28;20681;-71
2021/08/29 02:14:50;;;;;;;2.70;1.35;;;16.40;99.90;;;;;;5091726;28;20672;-71
2021/08/29 02:17:19;;;;;;;3.22;1.95;;;16.30;99.90;;;;;;5092631;28;20310;-72
2021/08/29 02:19:47;;;;;;;1.75;1.42;;;16.30;99.90;;;;;;5080108;28;20197;-72
2021/08/29 02:22:15;;;;;;;3.13;1.20;;;16.30;99.90;;;;;;5083915;28;20237;-72
2021/08/29 02:24:43;;;;;;;0.95;0.95;;;16.30;99.90;;;;;;5079326;28;20269;-72
2021/08/29 02:27:11;;;;;;;3.85;1.70;;;16.20;99.90;;;;;;5081461;28;20293;-72
2021/08/29 02:29:39;;;;;;;4.35;1.45;;;16.20;99.90;;;;;;5077800;28;20214;-72
2021/08/29 02:32:08;;;;;;;1.23;1.10;;;16.10;99.90;;;;;;5092736;28;20259;-71
2021/08/29 02:34:37;;;;;;;1.27;1.10;;;16.10;99.90;;;;;;5077757;28;20856;-71
2021/08/29 02:37:07;;;;;;;1.60;1.30;;;16.10;99.90;;;;;;5077638;28;20205;-71
2021/08/29 02:39:36;;;;;;;2.78;1.33;;;16.00;99.90;;;;;;5089712;28;20202;-71
2021/08/29 02:42:05;;;;;;;1.58;1.30;;;16.00;99.90;;;;;;5078381;28;20229;-72
2021/08/29 02:44:32;;;;;;;2.83;1.33;;;15.90;99.90;;;;;;5078051;28;20222;-71
2021/08/29 02:47:00;;;;;;;2.38;1.00;;;15.80;99.90;;;;;;5084085;28;20257;-71
2021/08/29 02:49:27;;;;;;;1.48;1.10;;;15.80;99.90;;;;;;5071992;28;20563;-72
2021/08/29 02:51:56;;;;;;;2.17;1.17;;;15.80;99.90;;;;;;5076136;28;20275;-72
2021/08/29 02:54:23;;;;;;;1.45;1.35;;;15.80;99.90;;;;;;5091735;28;20274;-71
2021/08/29 02:56:51;;;;;;;1.90;1.15;;;15.70;99.90;;;;;;5091355;28;20263;-71
2021/08/29 02:59:19;;;;;;;1.92;1.70;;;15.80;99.90;;;;;;5085478;28;20665;-72
2021/08/29 03:01:46;;;;;;;2.00;0.90;;;15.70;99.90;;;;;;5070772;28;20653;-72
2021/08/29 03:04:13;;;;;;;2.20;1.05;;;15.70;99.90;;;;;;5091002;28;20251;-72
2021/08/29 03:06:41;;;;;;;2.05;1.15;;;15.50;99.90;;;;;;5091185;28;20209;-73
2021/08/29 03:09:10;;;;;;;1.88;1.15;;;15.60;99.90;;;;;;5083831;28;20202;-73
2021/08/29 03:11:37;;;;;;;1.83;1.17;;;15.70;99.90;;;;;;5070904;28;20206;-73
2021/08/29 03:14:05;;;;;;;1.90;0.98;;;15.60;99.90;;;;;;5087112;28;20685;-73
2021/08/29 03:16:32;;;;;;;2.75;1.13;;;15.50;99.90;;;;;;5091499;28;20251;-73
2021/08/29 03:19:00;;;;;;;2.38;1.50;;;15.40;99.90;;;;;;5087534;28;20221;-72
2021/08/29 03:21:27;;;;;;;2.13;1.13;;;15.40;99.90;;;;;;5091589;28;20197;-72
2021/08/29 03:23:55;;;;;;;1.13;1.02;;;15.40;99.90;;;;;;5081488;28;20635;-71
2021/08/29 03:26:24;;;;;;;2.55;2.05;;;15.30;99.90;;;;;;5084847;28;20236;-71
2021/08/29 03:28:51;;;;;;;1.58;1.33;;;15.30;99.90;;;;;;5074057;28;20263;-72
2021/08/29 03:31:18;;;;;;;1.65;1.20;;;15.30;99.90;;;;;;5089252;28;20221;-72
2021/08/29 03:33:48;;;;;;;1.27;1.17;;;15.40;99.90;;;;;;5089257;28;20205;-72
2021/08/29 03:36:20;;;;;;;5.25;1.42;;;15.60;99.90;;;;;;5087959;28;20241;-72
2021/08/29 03:38:50;;;;;;;2.58;1.65;;;15.70;99.90;;;;;;5090472;28;20202;-72
2021/08/29 03:41:18;;;;;;;2.38;1.33;;;15.60;99.90;;;;;;5090904;28;20737;-72
2021/08/29 03:43:47;;;;;;;2.78;1.63;;;15.50;99.90;;;;;;5081029;28;20300;-72
2021/08/29 03:46:16;;;;;;;2.25;1.48;;;15.50;99.90;;;;;;5090718;28;20210;-72
2021/08/29 03:48:44;;;;;;;1.80;1.23;;;15.40;99.90;;;;;;5082573;28;20215;-72
2021/08/29 03:51:14;;;;;;;1.90;1.40;;;15.40;99.90;;;;;;5090622;28;20209;-71
2021/08/29 03:53:42;;;;;;;1.60;1.20;;;15.30;99.90;;;;;;5085662;28;20584;-72
2021/08/29 03:56:10;;;;;;;3.90;1.40;;;15.40;99.90;;;;;;5084708;28;20248;-72
2021/08/29 03:58:40;;;;;;;2.80;1.10;;;15.30;99.90;;;;;;5080645;28;20214;-72
2021/08/29 04:01:09;;;;;;;1.20;1.10;;;15.20;99.90;;;;;;5083077;28;20748;-72
2021/08/29 04:03:36;;;;;;;1.75;1.48;;;15.20;99.90;;;;;;5085197;28;20210;-72
2021/08/29 04:06:04;;;;;;;1.73;0.85;;;15.10;99.90;;;;;;5090874;28;20625;-74
2021/08/29 04:08:36;;;;;;;1.27;1.10;;;15.10;99.90;;;;;;5078126;28;20206;-74
2021/08/29 04:11:04;;;;;;;1.55;1.33;;;15.20;99.90;;;;;;5090352;28;20277;-73
2021/08/29 04:13:32;;;;;;;3.72;1.08;;;15.10;99.90;;;;;;5084652;28;20777;-74
2021/08/29 04:16:03;;;;;;;1.33;1.20;;;15.10;99.90;;;;;;5087301;28;20602;-73
2021/08/29 04:18:37;;;;;;;1.50;0.93;;;15.00;99.90;;;;;;5090744;28;20259;-74
2021/08/29 04:21:04;;;;;;;1.30;1.00;;;15.00;99.90;;;;;;5083872;28;20279;-74
2021/08/29 04:23:32;;;;;;;3.13;1.33;;;15.00;99.90;;;;;;5081694;28;20579;-73
2021/08/29 04:25:59;;;;;;;2.03;1.08;;;15.10;99.90;;;;;;5089765;28;20209;-72
2021/08/29 04:28:26;;;;;;;1.73;0.88;;;15.00;99.90;;;;;;5084648;28;20268;-72
2021/08/29 04:30:58;;;;;;;3.28;1.30;;;15.00;99.90;;;;;;5079229;28;20206;-73
2021/08/29 04:33:26;;;;;;;1.42;1.13;;;14.80;99.90;;;;;;5085256;28;20246;-73
2021/08/29 04:35:54;;;;;;;2.67;1.00;;;14.80;99.90;;;;;;5083623;28;20214;-73
2021/08/29 04:38:21;;;;;;;3.20;1.27;;;14.80;99.90;;;;;;5088291;28;20202;-73
2021/08/29 04:40:48;;;;;;;1.92;1.15;;;14.90;99.90;;;;;;5090013;28;20582;-74
2021/08/29 04:43:16;;;;;;;2.13;1.40;;;14.90;99.90;;;;;;5076829;28;20252;-74
2021/08/29 04:45:43;;;;;;;1.73;1.00;;;14.80;99.90;;;;;;5085235;28;20263;-72
2021/08/29 04:48:10;;;;;;;1.83;1.08;;;14.80;99.90;;;;;;5087350;28;20271;-72
2021/08/29 04:50:37;;;;;;;4.18;1.73;;;14.70;99.90;;;;;;5077681;28;20255;-72
2021/08/29 04:53:05;;;;;;;1.58;0.80;;;14.80;99.90;;;;;;5090306;28;20240;-72
2021/08/29 04:55:32;;;;;;;1.45;1.30;;;14.80;99.90;;;;;;5086310;28;20653;-72
2021/08/29 04:57:59;;;;;;;2.35;1.15;;;15.00;99.90;;;;;;5075233;28;20215;-72
2021/08/29 05:00:26;;;;;;;3.17;1.10;;;15.00;99.90;;;;;;5084700;28;20260;-72
2021/08/29 05:02:53;;;;;;;2.47;1.77;;;15.00;99.90;;;;;;5093531;28;20579;-74
2021/08/29 05:05:20;;;;;;;1.88;1.52;;;15.00;99.90;;;;;;5089215;28;20251;-74
2021/08/29 05:07:47;;;;;;;1.67;1.13;;;15.00;99.90;;;;;;5093314;28;20259;-72
2021/08/29 05:10:16;;;;;;;3.72;1.88;;;15.00;99.90;;;;;;5086513;28;20202;-72
2021/08/29 05:12:43;;;;;;;2.92;1.13;;;15.00;99.90;;;;;;5077844;28;20232;-73
2021/08/29 05:15:10;;;;;;;2.20;1.40;;;14.80;99.90;;;;;;5090624;28;20252;-73
2021/08/29 05:17:37;;;;;;;2.17;1.35;;;14.80;99.90;;;;;;5091564;28;20247;-73
2021/08/29 05:20:06;;;;;;;1.75;1.30;;;14.90;99.90;;;;;;5084841;28;20206;-72
2021/08/29 05:22:32;;;;;;;2.15;1.13;;;14.80;99.90;;;;;;5093796;28;20209;-74
2021/08/29 05:24:59;;;;;;;3.10;1.27;;;14.80;99.90;;;;;;5083609;28;20262;-73
2021/08/29 05:27:28;;;;;;;3.38;1.48;;;14.80;99.90;;;;;;5080949;28;20202;-74
2021/08/29 05:29:55;;;;;;;4.90;1.30;;;14.80;99.90;;;;;;5089614;28;20214;-73
2021/08/29 05:32:22;;;;;;;1.77;1.45;;;14.80;99.90;;;;;;5086136;28;20660;-72
2021/08/29 05:34:49;;;;;;;4.90;1.85;;;14.80;99.90;;;;;;5092412;28;20665;-72
2021/08/29 05:37:16;;;;;;;3.75;1.40;;;14.80;99.90;;;;;;5090709;28;20197;-72
2021/08/29 05:39:43;;;;;;;2.45;1.52;;;14.70;99.90;;;;;;5073575;28;20256;-72
2021/08/29 05:42:09;;;;;;;1.85;1.50;;;14.80;99.90;;;;;;5066827;28;20201;-73
2021/08/29 05:44:38;;;;;;;2.45;1.30;;;14.70;99.90;;;;;;5091232;28;20275;-72
2021/08/29 05:47:05;;;;;;;1.60;1.35;;;14.70;99.90;;;;;;5091525;28;20255;-72
2021/08/29 05:49:32;;;;;;;2.08;1.45;;;14.70;99.90;;;;;;5090064;28;20254;-72
2021/08/29 05:51:59;;;;;;;1.42;1.25;;;14.70;99.90;;;;;;5092229;28;20721;-73
2021/08/29 05:54:26;;;;;;;3.17;1.85;;;14.70;99.90;;;;;;5078213;28;20206;-73
2021/08/29 05:56:53;;;;;;;2.80;1.27;;;14.70;99.90;;;;;;5072863;28;20623;-72
2021/08/29 05:59:20;;;;;;;1.40;1.13;;;14.80;99.90;;;;;;5079495;28;20206;-72
2021/08/29 06:01:48;;;;;;;4.68;1.60;;;14.80;99.90;;;;;;5092254;28;20205;-72
2021/08/29 06:04:15;;;;;;;3.80;1.55;;;14.80;99.90;;;;;;5092889;28;20209;-74
2021/08/29 06:06:42;;;;;;;1.52;1.42;;;14.80;99.90;;;;;;5092587;28;20205;-74
2021/08/29 06:09:09;;;;;;;1.95;1.05;;;15.10;99.90;;;;;;5092355;28;20258;-74
2021/08/29 06:11:36;;;;;;;2.92;1.25;;;15.00;99.90;;;;;;5092451;28;20210;-73
2021/08/29 06:14:05;;;;;;;1.77;1.27;;;15.10;99.90;;;;;;5091993;28;20236;-73
2021/08/29 06:16:32;;;;;;;2.72;2.30;;;15.40;99.90;;;;;;5092897;28;20205;-73
2021/08/29 06:19:00;;;;;;;2.00;1.40;;;15.50;99.90;;;;;;5084419;28;20210;-73
2021/08/29 06:21:27;;;;;;;2.53;1.50;;;15.50;99.90;;;;;;5092400;28;20635;-73
2021/08/29 06:23:54;;;;;;;3.45;1.52;;;15.60;99.90;;;;;;5092151;28;20279;-75
2021/08/29 06:26:21;;;;;;;1.27;1.17;;;15.60;99.90;;;;;;5078211;28;20214;-76
2021/08/29 06:28:48;;;;;;;0.80;0.80;;;15.60;99.90;;;;;;5083335;28;20638;-74
2021/08/29 06:31:15;;;;;;;2.25;1.33;;;15.60;99.90;;;;;;5092124;28;20201;-74
2021/08/29 06:33:42;;;;;;;2.17;1.83;;;15.50;99.90;;;;;;5092032;28;20286;-75
2021/08/29 06:36:11;;;;;;;2.50;1.45;;;15.80;99.90;;;;;;5092055;28;20209;-77
2021/08/29 06:38:39;;;;;;;1.20;1.10;;;15.70;99.90;;;;;;5083213;28;20209;-73
2021/08/29 06:41:07;;;;;;;1.58;1.33;;;15.50;99.90;;;;;;5085897;28;20624;-77
2021/08/29 06:43:34;;;;;;;2.53;1.33;;;15.40;99.90;;;;;;5088450;28;20255;-73
2021/08/29 06:46:01;;;;;;;2.50;1.30;;;15.40;99.90;;;;;;5080970;28;20240;-76
2021/08/29 06:48:28;;;;;;;3.63;1.33;;;15.40;99.90;;;;;;5080484;28;20206;-76
2021/08/29 06:50:55;;;;;;;2.35;1.55;;;15.30;99.90;;;;;;5091594;28;20206;-74
2021/08/29 06:53:23;;;;;;;1.92;1.25;;;15.30;99.90;;;;;;5077401;28;20655;-75
2021/08/29 06:55:50;;;;;;;2.13;1.27;;;15.50;99.90;;;;;;5091435;28;20271;-76
2021/08/29 06:58:17;;;;;;;3.50;1.55;;;15.70;99.90;;;;;;5070321;28;20260;-77
2021/08/29 07:00:44;;;;;;;2.55;1.15;;;15.70;99.90;;;;;;5077226;28;20201;-74
2021/08/29 07:03:11;;;;;;;3.58;1.60;;;15.90;99.90;;;;;;5072406;28;20214;-74
2021/08/29 07:05:38;;;;;;;3.20;1.33;;;16.10;99.90;;;;;;5074074;28;20255;-74
2021/08/29 07:08:05;;;;;;;2.20;1.35;;;16.00;99.90;;;;;;5078471;28;20311;-77
2021/08/29 07:10:34;;;;;;;1.15;0.80;;;15.90;99.90;;;;;;5083297;28;20206;-73
2021/08/29 07:13:01;;;;;;;1.30;1.20;;;16.10;99.90;;;;;;5086531;28;20287;-76
2021/08/29 07:15:29;;;;;;;2.60;1.38;;;16.10;99.90;;;;;;5079883;28;20215;-73
2021/08/29 07:17:56;;;;;;;1.20;1.10;;;16.20;99.90;;;;;;5086981;28;20233;-74
2021/08/29 07:20:24;;;;;;;1.67;1.40;;;16.30;99.90;;;;;;5083056;28;20260;-75
2021/08/29 07:22:50;;;;;;;2.78;1.35;;;16.30;99.90;;;;;;5083094;28;20567;-75
2021/08/29 07:25:17;;;;;;;2.40;1.35;;;16.30;99.90;;;;;;5082155;28;20650;-75
2021/08/29 07:27:46;;;;;;;1.30;1.20;;;16.30;99.90;;;;;;5081920;28;20205;-75
2021/08/29 07:30:13;;;;;;;4.30;1.60;;;16.40;99.90;;;;;;5083208;28;20222;-73
2021/08/29 07:32:40;;;;;;;2.08;1.35;;;16.40;99.90;;;;;;5079366;28;20222;-75
2021/08/29 07:35:08;;;;;;;2.88;1.00;;;16.50;99.90;;;;;;5071419;28;20198;-72
2021/08/29 07:37:35;;;;;;;2.78;1.35;;;16.80;99.90;;;;;;5072928;28;20666;-78
2021/08/29 07:40:03;;;;;;;1.65;1.10;;;16.90;99.90;;;;;;5071931;28;20212;-72
2021/08/29 07:42:30;;;;;;;2.33;1.60;;;17.00;99.90;;;;;;5080965;28;20202;-77
2021/08/29 07:44:58;;;;;;;2.60;1.00;;;17.00;99.90;;;;;;5082698;28;20214;-73
2021/08/29 07:47:25;;;;;;;3.08;1.73;;;17.10;99.90;;;;;;5088452;28;20659;-74
2021/08/29 07:49:52;;;;;;;1.88;1.33;;;17.30;99.90;;;;;;5072454;28;20284;-73
2021/08/29 07:52:19;;;;;;;1.73;1.27;;;17.40;99.90;;;;;;5064608;28;20255;-72
2021/08/29 07:54:46;;;;;;;5.18;1.27;;;17.50;99.90;;;;;;5073383;28;20673;-73
2021/08/29 07:57:13;;;;;;;2.60;1.85;;;17.70;99.90;;;;;;5082922;28;20242;-72
2021/08/29 07:59:40;;;;;;;2.97;1.55;;;17.80;99.90;;;;;;5084575;28;20551;-74
2021/08/29 08:02:09;;;;;;;1.25;1.02;;;17.80;99.90;;;;;;5081785;28;20202;-72
2021/08/29 08:04:36;;;;;;;3.53;1.33;;;17.80;99.90;;;;;;5086778;28;20266;-73
2021/08/29 08:07:03;;;;;;;3.47;1.42;;;17.90;99.90;;;;;;5081970;28;20267;-72
2021/08/29 08:09:30;;;;;;;1.35;1.20;;;17.90;99.90;;;;;;5086188;28;20250;-73
2021/08/29 08:11:57;;;;;;;2.63;1.15;;;18.00;99.90;;;;;;5082777;28;20252;-73
2021/08/29 08:14:23;;;;;;;1.10;0.85;;;18.10;99.90;;;;;;5085589;28;20236;-75
2021/08/29 08:16:50;;;;;;;1.90;1.13;;;18.40;99.90;;;;;;5084239;28;20205;-72
2021/08/29 08:19:19;;;;;;;2.35;1.42;;;18.50;99.90;;;;;;5083976;28;20205;-73
2021/08/29 08:21:47;;;;;;;2.30;1.67;;;18.40;99.90;;;;;;5085832;28;20731;-72
2021/08/29 08:24:14;;;;;;;1.10;0.95;;;18.60;99.90;;;;;;5082024;28;20210;-75
2021/08/29 08:26:41;;;;;;;1.40;1.10;;;18.80;99.90;;;;;;5085816;28;20247;-72
2021/08/29 08:29:08;;;;;;;1.50;1.35;;;19.00;99.90;;;;;;5081707;28;20251;-72
2021/08/29 08:31:35;;;;;;;1.67;1.20;;;19.10;99.90;;;;;;5086395;28;20627;-73
2021/08/29 08:34:02;;;;;;;2.55;1.52;;;19.00;99.90;;;;;;5082879;28;20311;-74
2021/08/29 08:36:30;;;;;;;2.13;1.92;;;19.20;99.90;;;;;;5093162;28;20301;-72
2021/08/29 08:38:59;;;;;;;2.05;1.52;;;19.30;99.90;;;;;;5094191;28;20271;-75
2021/08/29 08:41:26;;;;;;;1.48;1.20;;;19.50;99.90;;;;;;5094311;28;20580;-74
2021/08/29 08:43:53;;;;;;;2.38;0.98;;;19.80;99.90;;;;;;5066126;28;20213;-73
2021/08/29 08:46:23;;;;;;;2.47;1.30;;;20.10;99.90;;;;;;5094480;28;20210;-72
2021/08/29 08:48:52;;;;;;;3.22;1.73;;;20.20;99.90;;;;;;5093474;28;20206;-71
2021/08/29 08:51:25;;;;;;;1.55;1.20;;;20.20;99.90;;;;;;5094463;28;20202;-76
2021/08/29 08:53:54;;;;;;;2.47;1.50;;;20.60;99.90;;;;;;5093282;28;20221;-75
2021/08/29 08:56:23;;;;;;;2.10;1.27;;;21.10;99.90;;;;;;5093939;28;20206;-74
2021/08/29 08:58:50;;;;;;;4.05;1.55;;;20.80;99.90;;;;;;5093265;28;20738;-76
2021/08/29 09:01:17;;;;;;;2.95;1.20;;;20.80;99.90;;;;;;5094009;28;20198;-75
2021/08/29 09:03:44;;;;;;;3.65;1.42;;;20.90;99.90;;;;;;5093323;28;20217;-76
2021/08/29 09:06:11;;;;;;;1.88;1.33;;;21.10;99.90;;;;;;5094098;28;20275;-76
2021/08/29 09:08:39;;;;;;;2.67;1.55;;;21.60;99.90;;;;;;5093625;28;20210;-72
2021/08/29 09:11:07;;;;;;;2.20;1.55;;;22.50;99.90;;;;;;5079919;28;20296;-74
2021/08/29 09:13:53;;;;;;;1.30;1.20;;;24.20;99.90;;;;;;5094132;28;20229;-77
2021/08/29 09:16:22;;;;;;;1.65;0.98;;;26.60;99.90;;;;;;5093635;28;20638;-76
2021/08/29 09:18:49;;;;;;;3.58;1.65;;;28.20;99.90;;;;;;5093541;28;20209;-74
2021/08/29 09:21:20;;;;;;;3.13;1.30;;;26.70;99.90;;;;;;5093370;28;20255;-76
2021/08/29 09:23:47;;;;;;;3.10;1.02;;;24.90;99.90;;;;;;5093274;28;20292;-75
2021/08/29 09:26:17;;;;;;;2.10;0.95;;;24.40;99.90;;;;;;5093351;28;20237;-72
2021/08/29 09:28:45;;;;;;;2.83;1.25;;;24.20;99.90;;;;;;5093357;28;20267;-73
2021/08/29 09:31:14;;;;;;;1.15;1.05;;;24.70;99.90;;;;;;5093338;28;20251;-71
2021/08/29 09:33:41;;;;;;;1.42;1.30;;;26.60;99.90;;;;;;5092781;28;20694;-73
2021/08/29 09:36:10;;;;;;;2.00;1.55;;;29.40;99.90;;;;;;5092984;28;20213;-74
2021/08/29 09:38:41;;;;;;;2.22;1.85;;;31.00;99.90;;;;;;5093510;28;20285;-73
2021/08/29 09:41:23;;;;;;;2.47;1.20;;;31.60;99.30;;;;;;5093484;28;20273;-71
2021/08/29 09:43:50;;;;;;;1.98;1.35;;;30.10;99.40;;;;;;5092731;28;20213;-71
2021/08/29 09:46:17;;;;;;;1.08;0.93;;;30.60;99.30;;;;;;5092206;28;20209;-74
2021/08/29 09:48:50;;;;;;;1.95;1.30;;;30.60;99.20;;;;;;5092576;28;20209;-73
2021/08/29 09:51:17;;;;;;;2.33;1.55;;;34.00;98.00;;;;;;5092898;28;20258;-74
2021/08/29 09:53:46;;;;;;;2.15;1.10;;;34.80;96.30;;;;;;5092606;28;20235;-75
2021/08/29 09:56:21;;;;;;;2.30;1.23;;;35.00;96.10;;;;;;5092987;28;20702;-72
2021/08/29 09:58:49;;;;;;;1.55;1.20;;;33.40;94.80;;;;;;5092608;28;20295;-76
2021/08/29 10:01:17;;;;;;;1.00;0.88;;;31.70;96.70;;;;;;5092839;28;20288;-74
2021/08/29 10:03:46;;;;;;;1.38;0.77;;;31.90;96.50;;;;;;5092117;28;20213;-75
2021/08/29 10:06:25;;;;;;;1.20;1.10;;;32.80;96.30;;;;;;5092897;28;20201;-75
2021/08/29 10:08:54;;;;;;;5.13;1.60;;;30.40;96.20;;;;;;5092323;28;20204;-76
2021/08/29 10:11:23;;;;;;;1.73;1.33;;;32.20;95.40;;;;;;5092861;28;20197;-75
2021/08/29 10:13:52;;;;;;;1.27;1.00;;;32.90;95.20;;;;;;5091802;28;20260;-76
2021/08/29 10:16:22;;;;;;;4.13;1.17;;;33.70;95.00;;;;;;5092924;28;20254;-75
2021/08/29 10:18:51;;;;;;;1.42;1.20;;;34.00;94.30;;;;;;5092372;28;20205;-74
2021/08/29 10:21:21;;;;;;;2.00;1.38;;;35.50;94.40;;;;;;5092159;28;20734;-72
2021/08/29 10:23:50;;;;;;;1.83;1.15;;;35.80;93.20;;;;;;5092160;28;20217;-72
2021/08/29 10:26:19;;;;;;;1.58;1.10;;;35.70;93.00;;;;;;5091924;28;20664;-75
2021/08/29 10:28:48;;;;;;;2.28;0.77;;;35.80;93.50;;;;;;5091947;28;20607;-74
2021/08/29 10:31:20;;;;;;;1.58;1.00;;;36.20;93.60;;;;;;5092293;28;20201;-75
2021/08/29 10:33:48;;;;;;;1.10;1.00;;;31.10;94.40;;;;;;5091440;28;20696;-75
2021/08/29 10:36:17;;;;;;;1.95;1.00;;;27.20;97.20;;;;;;5092204;28;20263;-74
2021/08/29 10:38:45;;;;;;;1.70;1.05;;;25.80;98.70;;;;;;5091542;28;20212;-75
2021/08/29 10:41:16;;;;;;;2.05;1.23;;;25.50;99.40;;;;;;5092070;28;20258;-76
2021/08/29 10:43:43;;;;;;;2.15;1.00;;;24.90;99.90;;;;;;5091176;28;20719;-75
2021/08/29 10:46:14;;;;;;;1.80;1.00;;;24.50;99.90;;;;;;5091944;28;20262;-74
2021/08/29 10:48:44;;;;;;;1.30;1.20;;;24.40;99.90;;;;;;5091106;28;20251;-74
2021/08/29 10:51:12;;;;;;;1.50;1.10;;;24.30;99.90;;;;;;5091780;28;20263;-71
2021/08/29 10:53:42;;;;;;;3.33;1.55;;;24.50;99.90;;;;;;5091411;28;20221;-71
2021/08/29 10:56:34;;;;;;;1.67;1.33;;;24.70;99.90;;;;;;5091769;28;20657;-75
2021/08/29 10:59:22;;;;;;;1.10;0.98;;;24.60;99.70;;;;;;5091189;28;20251;-75
2021/08/29 11:01:51;;;;;;;0.82;0.82;;;24.40;99.20;;;;;;5088094;28;20354;-74
2021/08/29 11:04:48;;;;;;;1.58;1.00;;;24.40;99.10;;;;;;5091730;28;20197;-75
2021/08/29 11:07:38;;;;;;;4.32;2.25;;;24.40;99.50;;;;;;5091491;28;20241;-74
2021/08/29 11:10:07;;;;;;;1.17;1.00;;;24.30;99.20;;;;;;5091706;28;20209;-72
2021/08/29 11:12:36;;;;;;;0.88;0.82;;;24.30;99.00;;;;;;5091638;28;20255;-72
2021/08/29 11:15:05;;;;;;;1.23;1.13;;;24.50;99.40;;;;;;5091566;28;20229;-75
2021/08/29 11:17:33;;;;;;;1.60;0.80;;;24.40;99.90;;;;;;5090870;28;20667;-71
2021/08/29 11:20:17;;;;;;;0.82;0.75;;;24.60;99.90;;;;;;5090948;28;20669;-74
2021/08/29 11:22:45;;;;;;;1.13;0.90;;;24.50;99.40;;;;;;5090914;28;20242;-73
2021/08/29 11:25:15;;;;;;;0.70;0.70;;;24.80;99.30;;;;;;5091133;28;20296;-74
2021/08/29 11:27:59;;;;;;;1.20;0.90;;;24.90;98.90;;;;;;5090802;28;20214;-73
2021/08/29 11:30:40;;;;;;;1.48;0.90;;;24.60;99.90;;;;;;5091141;28;20668;-74
2021/08/29 11:33:09;;;;;;;3.95;1.35;;;24.80;99.20;;;;;;5091033;28;20205;-70
2021/08/29 11:35:44;;;;;;;2.05;1.17;;;24.80;99.40;;;;;;5086562;28;20237;-71
2021/08/29 11:38:14;;;;;;;1.38;0.90;;;24.80;99.70;;;;;;5091060;28;20258;-73
2021/08/29 11:41:00;;;;;;;1.95;1.10;;;24.90;98.90;;;;;;5090771;28;20246;-74
2021/08/29 11:43:36;;;;;;;1.52;1.15;;;25.10;99.60;;;;;;5090557;28;20241;-74
2021/08/29 11:46:10;;;;;;;1.73;1.10;;;25.10;99.90;;;;;;5090737;28;20201;-73
2021/08/29 11:48:38;;;;;;;2.22;1.00;;;25.00;99.20;;;;;;5090877;28;20282;-72
2021/08/29 11:51:07;;;;;;;2.22;1.15;;;24.90;99.40;;;;;;5090964;28;20681;-74
2021/08/29 11:53:45;;;;;;;1.30;1.00;;;24.90;99.90;;;;;;5090782;28;20209;-73
2021/08/29 11:56:12;;;;;;;1.35;1.25;;;25.00;99.90;;;;;;5090923;28;20205;-74
2021/08/29 11:58:43;;;;;;;1.35;0.93;;;24.80;99.90;;;;;;5090671;28;20255;-72
2021/08/29 12:01:11;;;;;;;2.38;1.10;;;24.70;99.60;;;;;;5090689;28;20201;-72
2021/08/29 12:03:39;;;;;;;0.75;0.75;;;24.80;99.70;;;;;;5090756;28;20289;-74
2021/08/29 12:06:17;;;;;;;1.20;1.10;;;25.00;99.90;;;;;;5090747;28;20694;-73
2021/08/29 12:09:03;;;;;;;1.23;1.13;;;25.60;99.90;;;;;;5089919;28;20204;-75
2021/08/29 12:11:35;;;;;;;1.00;0.95;;;25.50;99.90;;;;;;5089021;28;20726;-76
2021/08/29 12:14:15;;;;;;;1.55;1.33;;;25.30;99.90;;;;;;5090596;28;20395;-75
2021/08/29 12:16:47;;;;;;;1.63;1.05;;;25.20;99.90;;;;;;5089955;28;20278;-74
2021/08/29 12:19:15;;;;;;;1.60;1.08;;;25.10;99.90;;;;;;5090524;28;20201;-74
2021/08/29 12:21:45;;;;;;;2.95;1.20;;;25.60;99.90;;;;;;5090488;28;20259;-74
2021/08/29 12:24:13;;;;;;;1.40;1.20;;;25.60;99.90;;;;;;5090415;28;20591;-76
2021/08/29 12:26:40;;;;;;;1.13;0.95;;;25.80;99.90;;;;;;5090305;28;20201;-72
2021/08/29 12:29:08;;;;;;;1.17;0.90;;;25.60;99.90;;;;;;5090345;28;20750;-75
2021/08/29 12:31:40;;;;;;;1.58;0.82;;;25.70;99.90;;;;;;5090805;28;20209;-73
2021/08/29 12:34:07;;;;;;;1.60;1.45;;;25.70;99.90;;;;;;5090377;28;20229;-71
2021/08/29 12:36:34;;;;;;;2.28;1.25;;;25.50;99.90;;;;;;5090131;28;20251;-76
2021/08/29 12:39:11;;;;;;;2.50;1.60;;;25.20;99.90;;;;;;5090293;28;20209;-73
2021/08/29 12:41:41;;;;;;;1.45;1.00;;;25.10;99.90;;;;;;5089995;28;20567;-73
2021/08/29 12:44:08;;;;;;;2.28;1.20;;;25.40;99.90;;;;;;5090070;28;20669;-75
2021/08/29 12:46:39;;;;;;;1.38;1.27;;;25.60;99.90;;;;;;5090495;28;20214;-75
2021/08/29 12:49:06;;;;;;;1.48;1.38;;;25.60;99.90;;;;;;5090637;28;20201;-74
2021/08/29 12:51:33;;;;;;;1.85;1.48;;;25.60;99.90;;;;;;5090722;28;20270;-74
2021/08/29 12:54:02;;;;;;;1.38;1.27;;;25.20;99.90;;;;;;5089740;28;20251;-78
2021/08/29 12:56:29;;;;;;;1.35;1.25;;;25.20;99.90;;;;;;5090424;28;20274;-73